Time;durP1;ratioP1;P1;durP2;ratioP2;P2;SDS_P1;SDS_P2;PMS_P1;PMS_P2;Temp;Humidity;BMP_temperature;BMP_pressure;BME280_temperature;BME280_humidity;BME280_pressure;Samples;Min_cycle;Max_cycle;Signal;HPM_P1;HPM_P2
2022/04/18 00:01:55;;;;;;;14.48;9.00;;;9.60;99.90;;;;;;5035021;28;20398;-58
2022/04/18 00:04:20;;;;;;;14.25;9.77;;;9.50;99.90;;;;;;5033414;28;20044;-58
2022/04/18 00:06:46;;;;;;;17.02;10.20;;;9.60;99.90;;;;;;5029709;28;20060;-58
2022/04/18 00:09:12;;;;;;;12.98;10.05;;;9.50;99.90;;;;;;5031813;28;20033;-58
2022/04/18 00:11:38;;;;;;;17.02;9.50;;;9.60;99.90;;;;;;5068991;28;20021;-59
2022/04/18 00:14:04;;;;;;;13.90;9.40;;;9.60;99.90;;;;;;5034007;28;20029;-59
2022/04/18 00:16:30;;;;;;;12.10;7.95;;;9.60;99.90;;;;;;5034656;28;20080;-58
2022/04/18 00:18:55;;;;;;;12.10;8.13;;;9.70;99.90;;;;;;5034047;28;20021;-59
2022/04/18 00:21:22;;;;;;;17.45;9.82;;;9.90;99.90;;;;;;5030229;28;20022;-58
2022/04/18 00:23:47;;;;;;;17.85;11.07;;;9.70;99.90;;;;;;5036307;28;20034;-58
2022/04/18 00:26:13;;;;;;;14.70;9.38;;;9.60;99.90;;;;;;5033831;28;20034;-59
2022/04/18 00:28:39;;;;;;;12.80;9.75;;;9.60;99.90;;;;;;5034494;28;20430;-58
2022/04/18 00:31:05;;;;;;;13.70;8.70;;;9.60;99.90;;;;;;5034263;28;20021;-59
2022/04/18 00:33:31;;;;;;;14.07;8.95;;;9.50;99.90;;;;;;5030335;28;20029;-58
2022/04/18 00:35:57;;;;;;;12.45;9.30;;;9.50;99.90;;;;;;5035187;28;20475;-58
2022/04/18 00:38:23;;;;;;;14.82;9.60;;;9.40;99.90;;;;;;5050180;28;20056;-58
2022/04/18 00:40:49;;;;;;;15.98;8.90;;;9.40;99.90;;;;;;5034197;28;20037;-59
2022/04/18 00:43:15;;;;;;;14.95;9.00;;;9.50;99.90;;;;;;5032811;28;20441;-58
2022/04/18 00:45:41;;;;;;;12.70;8.30;;;9.70;99.90;;;;;;5030113;28;20510;-59
2022/04/18 00:48:07;;;;;;;16.13;9.02;;;9.80;99.90;;;;;;5032409;28;20041;-59
2022/04/18 00:50:34;;;;;;;14.02;8.15;;;9.90;99.90;;;;;;5035400;28;20023;-59
2022/04/18 00:53:01;;;;;;;15.25;9.02;;;9.90;99.90;;;;;;5033994;28;20072;-58
2022/04/18 00:55:28;;;;;;;10.35;8.13;;;9.90;99.90;;;;;;5034476;28;20029;-58
2022/04/18 00:57:55;;;;;;;15.82;9.43;;;9.90;99.90;;;;;;5033385;28;20025;-58
2022/04/18 01:00:22;;;;;;;10.85;8.80;;;9.80;99.90;;;;;;5030057;28;20080;-58
2022/04/18 01:02:48;;;;;;;13.75;10.45;;;9.80;99.90;;;;;;5035735;28;20074;-59
2022/04/18 01:05:14;;;;;;;12.88;9.40;;;9.80;99.90;;;;;;5034365;28;20036;-59
2022/04/18 01:07:40;;;;;;;16.10;10.35;;;9.90;99.90;;;;;;5034023;28;20038;-58
2022/04/18 01:10:07;;;;;;;12.90;9.70;;;9.90;99.90;;;;;;5033887;28;20425;-58
2022/04/18 01:12:36;;;;;;;14.98;9.23;;;9.90;99.90;;;;;;5030757;28;20053;-58
2022/04/18 01:15:02;;;;;;;11.60;9.23;;;10.00;99.90;;;;;;5034058;28;20057;-58
2022/04/18 01:17:28;;;;;;;16.15;10.63;;;10.00;99.90;;;;;;5034188;28;20052;-59
2022/04/18 01:19:53;;;;;;;16.48;11.60;;;10.20;99.90;;;;;;5033653;28;20033;-58
2022/04/18 01:22:19;;;;;;;18.25;11.45;;;10.30;99.90;;;;;;5032440;28;20025;-58
2022/04/18 01:30:15;;;;;;;16.55;11.50;;;10.50;99.90;;;;;;5030619;28;20132;-58
2022/04/18 01:32:42;;;;;;;16.80;11.65;;;10.50;99.90;;;;;;5035241;28;20521;-58
2022/04/18 01:35:08;;;;;;;23.73;13.35;;;10.50;99.90;;;;;;5034013;28;20037;-58
2022/04/18 01:37:36;;;;;;;17.17;12.43;;;10.60;99.90;;;;;;5034182;28;20061;-59
2022/04/18 01:40:03;;;;;;;14.68;11.43;;;10.70;99.90;;;;;;5037402;28;20040;-59
2022/04/18 01:42:29;;;;;;;18.73;14.80;;;10.80;99.90;;;;;;5033236;28;20022;-59
2022/04/18 01:44:55;;;;;;;21.58;15.35;;;11.00;99.90;;;;;;5038990;28;20029;-58
2022/04/18 01:47:21;;;;;;;19.92;16.20;;;11.10;99.90;;;;;;5036763;28;20037;-58
2022/04/18 01:49:46;;;;;;;18.65;15.90;;;11.20;99.90;;;;;;5037272;28;20037;-58
2022/04/18 01:52:12;;;;;;;23.58;18.33;;;11.30;99.90;;;;;;5037281;28;20068;-59
2022/04/18 01:54:38;;;;;;;33.05;24.38;;;11.30;99.90;;;;;;5034620;28;20390;-58
2022/04/18 01:57:04;;;;;;;34.20;27.38;;;11.50;99.90;;;;;;5037068;28;20096;-59
2022/04/18 01:59:29;;;;;;;33.85;28.15;;;11.50;99.90;;;;;;5036470;28;20057;-59
2022/04/18 02:01:55;;;;;;;36.28;28.48;;;11.60;99.90;;;;;;5035709;28;20473;-58
2022/04/18 02:04:21;;;;;;;37.75;30.35;;;11.60;99.90;;;;;;5035445;28;20063;-59
2022/04/18 02:06:47;;;;;;;32.92;29.35;;;11.70;99.90;;;;;;5035062;28;20502;-59
2022/04/18 02:09:12;;;;;;;37.63;30.88;;;11.70;99.90;;;;;;5034295;28;20024;-59
2022/04/18 02:11:39;;;;;;;40.75;31.98;;;11.70;99.90;;;;;;5038843;28;20033;-58
2022/04/18 02:14:04;;;;;;;40.42;33.25;;;11.80;99.90;;;;;;5036537;28;20029;-59
2022/04/18 02:16:30;;;;;;;36.15;31.05;;;11.80;99.90;;;;;;5036341;28;20086;-58
2022/04/18 02:18:56;;;;;;;42.92;33.40;;;11.80;99.90;;;;;;5036224;28;20025;-58
2022/04/18 02:21:23;;;;;;;43.17;33.47;;;11.80;99.90;;;;;;5032762;28;20167;-59
2022/04/18 02:23:49;;;;;;;48.78;34.28;;;11.90;99.90;;;;;;5038832;28;20036;-59
2022/04/18 02:26:15;;;;;;;42.33;31.27;;;11.90;99.90;;;;;;5036661;28;20029;-59
2022/04/18 02:28:41;;;;;;;45.00;33.15;;;11.90;99.90;;;;;;5036310;28;20517;-59
2022/04/18 02:31:08;;;;;;;47.55;33.75;;;11.90;99.90;;;;;;5036505;28;20028;-59
2022/04/18 02:33:33;;;;;;;43.45;32.42;;;11.90;99.90;;;;;;5032588;28;20033;-59
2022/04/18 02:36:01;;;;;;;38.45;30.77;;;12.00;99.90;;;;;;5037395;28;20471;-59
2022/04/18 02:38:27;;;;;;;46.08;32.53;;;12.00;99.90;;;;;;5035302;28;20422;-59
2022/04/18 02:40:53;;;;;;;39.97;31.50;;;12.00;99.90;;;;;;5034273;28;20054;-59
2022/04/18 02:43:19;;;;;;;41.70;30.75;;;12.00;99.90;;;;;;5034576;28;20071;-58
2022/04/18 02:45:45;;;;;;;38.95;30.05;;;12.00;99.90;;;;;;5033857;28;20017;-59
2022/04/18 02:48:11;;;;;;;37.63;27.13;;;12.10;99.90;;;;;;5033583;28;20555;-58
2022/04/18 02:50:37;;;;;;;39.80;29.05;;;12.10;99.90;;;;;;5037058;28;20037;-59
2022/04/18 02:53:05;;;;;;;36.20;27.60;;;12.10;99.90;;;;;;5035980;28;20041;-59
2022/04/18 02:55:31;;;;;;;35.67;26.52;;;12.10;99.90;;;;;;5036132;28;20036;-59
2022/04/18 02:57:57;;;;;;;40.13;28.08;;;12.10;99.90;;;;;;5035439;28;20021;-59
2022/04/18 03:00:22;;;;;;;34.60;26.67;;;12.10;99.90;;;;;;5031670;28;20025;-58
2022/04/18 03:02:48;;;;;;;36.50;25.85;;;12.10;99.90;;;;;;5037892;28;20030;-58
2022/04/18 03:05:14;;;;;;;35.38;25.73;;;12.10;99.90;;;;;;5035717;28;20044;-58
2022/04/18 03:07:41;;;;;;;33.65;25.35;;;12.10;99.90;;;;;;5035755;28;20045;-58
2022/04/18 03:10:08;;;;;;;33.63;24.27;;;12.10;99.90;;;;;;5035963;28;20017;-58
2022/04/18 03:12:34;;;;;;;37.75;24.08;;;12.10;99.90;;;;;;5031881;28;20086;-58
2022/04/18 03:15:00;;;;;;;34.50;23.00;;;12.20;99.90;;;;;;5036444;28;20022;-58
2022/04/18 03:17:26;;;;;;;31.92;22.27;;;12.20;99.90;;;;;;5034876;28;20120;-58
2022/04/18 03:19:54;;;;;;;30.83;21.35;;;12.20;99.90;;;;;;5034163;28;20553;-58
2022/04/18 03:22:20;;;;;;;30.63;21.58;;;12.20;99.90;;;;;;5034010;28;20029;-58
2022/04/18 03:24:46;;;;;;;26.30;20.65;;;12.20;99.90;;;;;;5033575;28;20043;-59
2022/04/18 03:27:12;;;;;;;28.95;22.92;;;12.20;99.90;;;;;;5033045;28;20029;-58
2022/04/18 03:29:38;;;;;;;29.42;22.60;;;12.20;99.90;;;;;;5034798;28;20119;-58
2022/04/18 03:32:04;;;;;;;32.67;22.90;;;12.20;99.90;;;;;;5035323;28;20080;-58
2022/04/18 03:34:30;;;;;;;37.50;24.27;;;12.20;99.90;;;;;;5035144;28;20040;-58
2022/04/18 03:39:53;;;;;;;32.65;23.33;;;12.20;99.90;;;;;;5018447;28;20053;-58
2022/04/18 03:42:29;;;;;;;31.58;22.25;;;12.20;99.90;;;;;;5031651;28;20104;-58
2022/04/18 03:45:00;;;;;;;30.15;22.30;;;12.20;99.90;;;;;;5044481;28;20025;-58
2022/04/18 03:47:27;;;;;;;29.13;22.20;;;12.20;99.90;;;;;;5034098;28;20453;-58
2022/04/18 03:49:53;;;;;;;30.90;22.35;;;12.20;99.90;;;;;;5035033;28;20021;-58
2022/04/18 03:52:20;;;;;;;34.28;22.40;;;12.20;99.90;;;;;;5035467;28;20029;-58
2022/04/18 03:54:48;;;;;;;31.63;21.48;;;12.20;99.90;;;;;;5032824;28;20032;-58
2022/04/18 03:57:14;;;;;;;29.35;21.35;;;12.20;99.90;;;;;;5032392;28;20034;-58
2022/04/18 03:59:40;;;;;;;31.95;21.73;;;12.20;99.90;;;;;;5034874;28;20033;-58
2022/04/18 04:02:06;;;;;;;28.83;21.23;;;12.10;99.90;;;;;;5032658;28;20045;-58
2022/04/18 04:04:32;;;;;;;32.83;22.00;;;12.10;99.90;;;;;;5034590;28;20099;-58
2022/04/18 04:06:58;;;;;;;30.10;20.23;;;12.20;99.90;;;;;;5034549;28;20025;-58
2022/04/18 04:09:24;;;;;;;27.50;18.73;;;12.20;99.90;;;;;;5030325;28;20030;-59
2022/04/18 04:11:51;;;;;;;28.27;18.52;;;12.20;99.90;;;;;;5036166;28;20029;-58
2022/04/18 04:14:18;;;;;;;22.55;17.38;;;12.20;99.90;;;;;;5034854;28;20375;-58
2022/04/18 04:16:44;;;;;;;23.77;17.52;;;12.10;99.90;;;;;;5034448;28;20048;-58
2022/04/18 04:19:09;;;;;;;25.42;17.30;;;12.10;99.90;;;;;;5034313;28;20029;-58
2022/04/18 04:21:35;;;;;;;25.88;16.92;;;12.10;99.90;;;;;;5031302;28;20033;-58
2022/04/18 04:24:01;;;;;;;26.45;16.70;;;12.10;99.90;;;;;;5034786;28;20029;-59
2022/04/18 04:26:30;;;;;;;26.15;17.63;;;12.10;99.90;;;;;;5034620;28;20022;-58
2022/04/18 04:28:56;;;;;;;27.58;15.88;;;12.20;99.90;;;;;;5034296;28;20115;-59
2022/04/18 04:31:22;;;;;;;23.85;16.42;;;12.20;99.90;;;;;;5034690;28;20049;-58
2022/04/18 04:33:47;;;;;;;21.40;15.30;;;12.20;99.90;;;;;;5032804;28;20036;-58
2022/04/18 04:36:15;;;;;;;24.42;15.68;;;12.20;99.90;;;;;;5031798;28;20475;-58
2022/04/18 04:38:41;;;;;;;23.33;15.15;;;12.10;99.90;;;;;;5034574;28;20033;-59
2022/04/18 04:41:07;;;;;;;21.98;15.52;;;12.20;99.90;;;;;;5032300;28;20493;-58
2022/04/18 04:43:33;;;;;;;22.85;14.95;;;12.20;99.90;;;;;;5034153;28;20029;-58
2022/04/18 04:46:02;;;;;;;23.27;14.98;;;12.20;99.90;;;;;;5034471;28;20025;-58
2022/04/18 04:48:28;;;;;;;28.02;15.23;;;12.20;99.90;;;;;;5014683;28;20034;-58
2022/04/18 04:50:54;;;;;;;22.13;13.95;;;12.20;99.90;;;;;;5036020;28;20054;-58
2022/04/18 04:53:20;;;;;;;20.48;14.10;;;12.20;99.90;;;;;;5033937;28;20060;-58
2022/04/18 04:55:46;;;;;;;25.98;14.23;;;12.20;99.90;;;;;;5033812;28;20022;-60
2022/04/18 04:58:12;;;;;;;21.65;14.40;;;12.20;99.90;;;;;;5033945;28;20029;-58
2022/04/18 05:00:39;;;;;;;19.55;13.48;;;12.10;99.90;;;;;;5031610;28;20128;-59
2022/04/18 05:03:06;;;;;;;22.13;13.82;;;12.20;99.90;;;;;;5033467;28;20128;-58
2022/04/18 05:05:35;;;;;;;21.50;13.63;;;12.20;99.90;;;;;;5035245;28;20041;-58
2022/04/18 05:08:01;;;;;;;23.00;13.88;;;12.20;99.90;;;;;;5033790;28;20044;-59
2022/04/18 05:10:28;;;;;;;21.08;13.63;;;12.20;99.90;;;;;;5033427;28;20101;-59
2022/04/18 05:12:53;;;;;;;20.70;13.80;;;12.20;99.90;;;;;;5036508;28;20512;-59
2022/04/18 05:15:19;;;;;;;18.48;13.18;;;12.20;99.90;;;;;;5033952;28;20030;-58
2022/04/18 05:17:45;;;;;;;20.33;13.25;;;12.20;99.90;;;;;;5038889;28;20032;-59
2022/04/18 05:20:11;;;;;;;19.13;13.55;;;12.20;99.90;;;;;;5036360;28;20032;-59
2022/04/18 05:22:37;;;;;;;20.73;13.77;;;12.20;99.90;;;;;;5037469;28;20041;-59
2022/04/18 05:25:03;;;;;;;22.35;14.38;;;12.20;99.90;;;;;;5037534;28;20032;-59
2022/04/18 05:27:29;;;;;;;17.52;12.63;;;12.20;99.90;;;;;;5033775;28;20098;-59
2022/04/18 05:29:55;;;;;;;15.25;12.48;;;12.20;99.90;;;;;;5039261;28;20017;-59
2022/04/18 05:32:20;;;;;;;20.17;13.98;;;12.20;99.90;;;;;;5037499;28;20478;-59
2022/04/18 05:34:46;;;;;;;20.35;13.15;;;12.10;99.90;;;;;;5037400;28;20466;-59
2022/04/18 05:37:12;;;;;;;19.77;12.48;;;12.20;99.90;;;;;;5037312;28;20057;-60
2022/04/18 05:39:38;;;;;;;17.90;13.23;;;12.10;99.90;;;;;;5034659;28;20433;-59
2022/04/18 05:42:06;;;;;;;20.15;12.32;;;12.20;99.90;;;;;;5036997;28;20033;-59
2022/04/18 05:44:32;;;;;;;17.77;11.88;;;12.20;99.90;;;;;;5038372;28;20017;-59
2022/04/18 05:46:58;;;;;;;17.25;11.48;;;12.10;99.90;;;;;;5037001;28;20038;-59
2022/04/18 05:49:24;;;;;;;17.98;12.23;;;12.20;99.90;;;;;;5037645;28;20398;-59
2022/04/18 05:51:50;;;;;;;17.75;12.30;;;12.20;99.90;;;;;;5035887;28;20025;-59
2022/04/18 05:54:16;;;;;;;16.88;11.93;;;12.20;99.90;;;;;;5033924;28;20030;-59
2022/04/18 05:56:41;;;;;;;18.75;12.25;;;12.20;99.90;;;;;;5037684;28;20490;-59
2022/04/18 05:59:07;;;;;;;14.65;11.75;;;12.20;99.90;;;;;;5034184;28;20033;-59
2022/04/18 06:01:34;;;;;;;14.23;11.15;;;12.20;99.90;;;;;;5036949;28;20069;-59
2022/04/18 06:04:00;;;;;;;16.52;11.02;;;12.20;99.90;;;;;;5037313;28;20037;-59
2022/04/18 06:06:25;;;;;;;15.85;11.13;;;12.30;99.90;;;;;;5032664;28;20022;-59
2022/04/18 06:08:51;;;;;;;14.60;11.50;;;12.30;99.90;;;;;;5038544;28;20041;-59
2022/04/18 06:11:17;;;;;;;14.98;11.27;;;12.30;99.90;;;;;;5036848;28;20022;-59
2022/04/18 06:13:43;;;;;;;15.02;10.52;;;12.30;99.90;;;;;;5036832;28;20037;-59
2022/04/18 06:16:08;;;;;;;13.15;10.20;;;12.30;99.90;;;;;;5036790;28;20017;-59
2022/04/18 06:18:34;;;;;;;12.70;9.60;;;12.40;99.90;;;;;;5033681;28;20029;-59
2022/04/18 06:21:00;;;;;;;14.38;9.63;;;12.40;99.90;;;;;;5037014;28;20018;-59
2022/04/18 06:23:25;;;;;;;14.65;10.02;;;12.50;99.90;;;;;;5034673;28;20419;-59
2022/04/18 06:25:51;;;;;;;12.63;9.90;;;12.50;99.90;;;;;;5036568;28;20036;-59
2022/04/18 06:28:19;;;;;;;11.55;8.93;;;12.50;99.90;;;;;;5036403;28;20037;-59
2022/04/18 06:30:44;;;;;;;12.70;9.30;;;12.50;99.90;;;;;;5034445;28;20409;-59
2022/04/18 06:33:11;;;;;;;16.80;9.90;;;12.60;99.90;;;;;;5034027;28;20116;-59
2022/04/18 06:35:37;;;;;;;11.43;9.43;;;12.60;99.90;;;;;;5036075;28;20510;-59
2022/04/18 06:38:03;;;;;;;14.88;9.27;;;12.60;99.90;;;;;;5034309;28;20058;-58
2022/04/18 06:40:28;;;;;;;12.73;9.10;;;12.60;99.90;;;;;;5034889;28;20072;-59
2022/04/18 06:42:54;;;;;;;12.82;9.38;;;12.70;99.90;;;;;;5035573;28;20043;-59
2022/04/18 06:45:20;;;;;;;13.38;8.95;;;12.70;99.90;;;;;;5032601;28;20041;-59
2022/04/18 06:47:45;;;;;;;18.13;9.15;;;12.80;99.90;;;;;;5038103;28;20521;-59
2022/04/18 06:50:12;;;;;;;14.57;9.07;;;12.80;99.90;;;;;;5036542;28;20022;-59
2022/04/18 06:52:39;;;;;;;14.45;8.90;;;12.80;99.90;;;;;;5035703;28;20037;-59
2022/04/18 06:55:06;;;;;;;11.80;8.75;;;12.80;99.90;;;;;;5036000;28;20025;-59
2022/04/18 06:57:32;;;;;;;15.00;8.73;;;12.80;99.90;;;;;;5031193;28;20533;-60
2022/04/18 06:59:57;;;;;;;15.20;8.98;;;12.80;99.90;;;;;;5037105;28;20014;-59
2022/04/18 07:02:23;;;;;;;15.30;8.90;;;12.90;99.90;;;;;;5036192;28;20486;-59
2022/04/18 07:04:49;;;;;;;16.05;9.07;;;12.80;99.90;;;;;;5035745;28;20037;-59
2022/04/18 07:07:15;;;;;;;13.07;9.50;;;12.90;99.90;;;;;;5035375;28;20044;-59
2022/04/18 07:09:41;;;;;;;15.20;9.15;;;12.90;99.90;;;;;;5033130;28;20079;-59
2022/04/18 07:12:07;;;;;;;16.55;8.98;;;13.00;99.90;;;;;;5035073;28;20095;-59
2022/04/18 07:14:36;;;;;;;13.63;9.10;;;13.00;99.90;;;;;;5035282;28;20189;-59
2022/04/18 07:17:02;;;;;;;14.00;8.98;;;13.10;99.90;;;;;;5033978;28;20022;-58
2022/04/18 07:19:28;;;;;;;12.68;8.40;;;13.10;99.90;;;;;;5035781;28;20025;-59
2022/04/18 07:21:55;;;;;;;14.10;8.50;;;13.20;99.90;;;;;;5034412;28;20041;-60
2022/04/18 07:24:20;;;;;;;15.30;8.88;;;13.20;99.90;;;;;;5031870;28;20043;-59
2022/04/18 07:26:46;;;;;;;11.40;7.95;;;13.30;99.90;;;;;;5037103;28;20026;-59
2022/04/18 07:29:12;;;;;;;11.95;8.30;;;13.30;99.90;;;;;;5035605;28;20452;-59
2022/04/18 07:31:37;;;;;;;13.80;7.65;;;13.50;99.90;;;;;;5035245;28;20033;-59
2022/04/18 07:34:03;;;;;;;13.13;8.20;;;13.60;99.90;;;;;;5034823;28;20107;-58
2022/04/18 07:36:29;;;;;;;11.27;7.32;;;13.70;99.90;;;;;;5031128;28;20041;-59
2022/04/18 07:38:55;;;;;;;13.57;7.25;;;13.70;99.90;;;;;;5037188;28;20029;-59
2022/04/18 07:41:23;;;;;;;12.55;7.55;;;13.70;99.90;;;;;;5034988;28;20034;-58
2022/04/18 07:43:49;;;;;;;11.30;7.20;;;13.80;99.90;;;;;;5034803;28;20410;-59
2022/04/18 07:46:15;;;;;;;13.50;6.85;;;14.00;99.90;;;;;;5034897;28;20035;-59
2022/04/18 07:48:41;;;;;;;9.48;6.63;;;14.10;99.90;;;;;;5031990;28;20037;-59
2022/04/18 07:53:51;;;;;;;10.93;5.93;;;14.30;99.90;;;;;;5036630;28;20064;-59
2022/04/18 07:56:17;;;;;;;7.80;5.60;;;14.30;99.90;;;;;;5033696;28;20057;-59
2022/04/18 07:58:43;;;;;;;12.15;6.05;;;14.20;99.90;;;;;;5034270;28;20083;-59
2022/04/18 08:01:08;;;;;;;7.20;5.60;;;14.50;99.90;;;;;;5033822;28;20025;-59
2022/04/18 08:03:35;;;;;;;6.30;5.70;;;14.40;99.90;;;;;;5030944;28;20022;-59
2022/04/18 08:06:01;;;;;;;8.75;5.55;;;14.50;99.90;;;;;;5035039;28;20080;-59
2022/04/18 08:08:27;;;;;;;6.85;5.35;;;14.60;99.90;;;;;;5034048;28;20551;-59
2022/04/18 08:10:53;;;;;;;7.63;5.18;;;14.80;99.90;;;;;;5034453;28;20033;-58
2022/04/18 08:13:18;;;;;;;7.60;5.00;;;14.80;99.90;;;;;;5034906;28;20031;-59
2022/04/18 08:15:44;;;;;;;8.43;4.85;;;14.90;99.90;;;;;;5032395;28;20510;-59
2022/04/18 08:18:10;;;;;;;7.10;4.57;;;14.90;99.90;;;;;;5032382;28;20052;-59
2022/04/18 08:20:36;;;;;;;8.38;5.15;;;15.00;99.90;;;;;;5036006;28;20026;-59
2022/04/18 08:23:01;;;;;;;9.00;5.00;;;15.10;99.90;;;;;;5034236;28;20040;-58
2022/04/18 08:25:27;;;;;;;9.93;4.53;;;15.30;99.90;;;;;;5034269;28;20037;-59
2022/04/18 08:27:53;;;;;;;7.78;4.28;;;15.50;99.90;;;;;;5033104;28;20051;-59
2022/04/18 08:30:19;;;;;;;6.05;3.90;;;15.60;99.90;;;;;;5030740;28;20037;-58
2022/04/18 08:32:44;;;;;;;8.50;4.43;;;15.80;99.90;;;;;;5035028;28;20036;-59
2022/04/18 08:35:11;;;;;;;5.97;3.88;;;15.90;99.90;;;;;;5032734;28;20124;-58
2022/04/18 08:37:37;;;;;;;8.38;4.00;;;16.10;99.90;;;;;;5034038;28;20103;-59
2022/04/18 08:40:05;;;;;;;8.07;4.32;;;16.40;99.90;;;;;;5034116;28;20025;-59
2022/04/18 08:42:34;;;;;;;8.70;4.20;;;16.80;99.90;;;;;;5030159;28;20061;-59
2022/04/18 08:45:05;;;;;;;5.22;4.10;;;16.90;99.90;;;;;;5034684;28;20095;-59
2022/04/18 08:53:02;;;;;;;4.18;3.03;;;18.20;99.90;;;;;;5033924;28;20077;-59
2022/04/18 08:55:29;;;;;;;7.75;3.40;;;18.00;99.90;;;;;;5034122;28;20450;-59
2022/04/18 08:57:55;;;;;;;8.32;3.50;;;17.80;99.90;;;;;;5033299;28;20032;-60
2022/04/18 09:00:21;;;;;;;7.18;3.50;;;18.20;99.90;;;;;;5030156;28;20116;-59
2022/04/18 09:02:46;;;;;;;5.32;3.53;;;18.00;99.90;;;;;;5035781;28;20033;-59
2022/04/18 09:05:13;;;;;;;7.38;3.80;;;17.40;99.90;;;;;;5033834;28;20026;-59
2022/04/18 09:08:04;;;;;;;6.10;3.30;;;17.30;99.90;;;;;;5033924;28;20451;-59
2022/04/18 09:10:29;;;;;;;6.50;3.50;;;17.20;99.90;;;;;;5032483;28;20025;-59
2022/04/18 09:13:14;;;;;;;6.13;3.20;;;17.10;99.90;;;;;;5031589;28;20044;-59
2022/04/18 09:15:46;;;;;;;6.90;3.50;;;17.10;99.90;;;;;;5016688;28;20417;-59
2022/04/18 09:18:12;;;;;;;8.63;3.75;;;17.00;99.90;;;;;;5031593;28;20030;-59
2022/04/18 09:20:49;;;;;;;8.40;3.50;;;16.80;99.90;;;;;;5033421;28;20037;-59
2022/04/18 09:23:20;;;;;;;8.63;3.50;;;16.50;99.90;;;;;;5033587;28;20033;-59
2022/04/18 09:25:50;;;;;;;4.22;3.20;;;16.50;99.90;;;;;;5033801;28;20045;-59
2022/04/18 09:28:16;;;;;;;6.15;3.38;;;16.70;99.90;;;;;;5033498;28;20506;-59
2022/04/18 09:30:42;;;;;;;6.75;3.13;;;16.60;99.90;;;;;;5031303;28;20055;-59
2022/04/18 09:33:08;;;;;;;5.53;3.15;;;16.80;99.90;;;;;;5032498;28;20030;-59
2022/04/18 09:35:35;;;;;;;6.10;3.22;;;17.00;99.90;;;;;;5035050;28;20478;-59
2022/04/18 09:38:06;;;;;;;5.70;3.50;;;17.30;99.90;;;;;;5033864;28;20057;-59
2022/04/18 09:40:37;;;;;;;8.43;3.28;;;17.10;99.90;;;;;;5033571;28;20030;-59
2022/04/18 09:43:03;;;;;;;4.97;3.45;;;17.30;99.90;;;;;;5033230;28;20087;-59
2022/04/18 09:45:29;;;;;;;4.88;3.22;;;17.40;99.90;;;;;;5029190;28;20022;-59
2022/04/18 09:48:03;;;;;;;6.13;3.00;;;17.30;99.90;;;;;;5042481;28;20041;-58
2022/04/18 09:53:26;;;;;;;8.20;3.30;;;16.50;99.90;;;;;;5032221;28;20033;-59
2022/04/18 09:55:53;;;;;;;7.20;3.53;;;16.50;99.90;;;;;;5033977;28;20034;-59
2022/04/18 09:58:20;;;;;;;7.07;3.35;;;16.50;99.90;;;;;;5033573;28;20035;-59
2022/04/18 10:00:46;;;;;;;4.75;3.10;;;16.50;99.90;;;;;;5034681;28;20030;-59
2022/04/18 10:03:13;;;;;;;6.78;3.10;;;16.60;99.90;;;;;;5034673;28;20539;-59
2022/04/18 10:05:40;;;;;;;5.38;3.40;;;17.10;99.90;;;;;;5036889;28;20482;-59
2022/04/18 10:08:06;;;;;;;10.60;2.85;;;17.30;99.90;;;;;;5036768;28;20569;-59
2022/04/18 10:10:34;;;;;;;8.25;3.28;;;17.50;99.90;;;;;;5036764;28;20156;-59
2022/04/18 10:13:03;;;;;;;5.28;3.08;;;17.60;99.90;;;;;;5036621;28;20025;-59
2022/04/18 10:15:29;;;;;;;8.32;3.10;;;17.60;99.90;;;;;;5016695;28;20116;-59
2022/04/18 10:17:56;;;;;;;7.25;3.35;;;17.80;99.90;;;;;;5045930;28;20032;-59
2022/04/18 10:20:28;;;;;;;7.40;3.50;;;17.90;99.90;;;;;;5036912;28;20024;-60
2022/04/18 10:23:20;;;;;;;5.70;2.95;;;18.30;99.90;;;;;;5037108;28;20026;-59
2022/04/18 10:26:24;;;;;;;5.13;3.22;;;18.40;99.90;;;;;;5036568;28;20037;-59
2022/04/18 10:28:53;;;;;;;6.18;3.10;;;18.70;99.90;;;;;;5034909;28;20033;-59
2022/04/18 10:31:25;;;;;;;6.88;3.10;;;20.00;99.90;;;;;;5035018;28;20394;-59
2022/04/18 10:33:51;;;;;;;8.35;6.13;;;20.00;99.90;;;;;;5035339;28;20112;-59
2022/04/18 10:36:34;;;;;;;5.65;3.22;;;19.60;99.90;;;;;;5033269;28;20107;-58
2022/04/18 10:39:07;;;;;;;6.75;3.30;;;19.10;99.90;;;;;;5046559;28;20045;-59
2022/04/18 10:41:39;;;;;;;4.93;2.95;;;18.50;99.90;;;;;;5037140;28;20436;-59
2022/04/18 10:44:08;;;;;;;5.18;2.75;;;18.10;99.90;;;;;;5036198;28;20402;-59
2022/04/18 10:46:36;;;;;;;5.88;3.28;;;18.20;99.90;;;;;;5036118;28;20029;-59
2022/04/18 10:49:04;;;;;;;5.43;3.10;;;18.40;99.90;;;;;;5036126;28;20497;-59
2022/04/18 10:51:40;;;;;;;6.53;3.55;;;18.20;99.90;;;;;;5031894;28;20098;-59
2022/04/18 10:54:09;;;;;;;6.00;3.08;;;18.40;99.90;;;;;;5036029;28;20044;-59
2022/04/18 10:56:46;;;;;;;7.35;3.50;;;18.30;99.90;;;;;;5037355;28;20379;-59
2022/04/18 10:59:13;;;;;;;4.90;3.25;;;18.10;99.90;;;;;;5035596;28;20482;-59
2022/04/18 11:01:39;;;;;;;5.60;3.28;;;17.90;99.90;;;;;;5034990;28;20032;-58
2022/04/18 11:04:09;;;;;;;7.47;3.08;;;17.90;99.90;;;;;;5035963;28;20029;-59
2022/04/18 11:06:38;;;;;;;5.05;2.63;;;17.60;99.90;;;;;;5030967;28;20431;-59
2022/04/18 11:09:21;;;;;;;7.07;3.00;;;17.70;99.90;;;;;;5035245;28;20040;-59
2022/04/18 11:11:53;;;;;;;5.65;3.03;;;17.70;99.90;;;;;;5036270;28;20386;-59
2022/04/18 11:14:20;;;;;;;5.63;3.15;;;17.50;99.90;;;;;;5034550;28;20480;-59
2022/04/18 11:16:47;;;;;;;7.40;3.08;;;17.60;99.90;;;;;;5035935;28;20033;-59
2022/04/18 11:19:18;;;;;;;5.70;3.10;;;17.40;99.90;;;;;;5035712;28;20025;-59
2022/04/18 11:22:00;;;;;;;6.88;3.08;;;17.60;99.90;;;;;;5033304;28;20022;-58
2022/04/18 11:24:51;;;;;;;6.63;3.30;;;17.60;99.90;;;;;;5031193;28;20037;-59
2022/04/18 11:27:36;;;;;;;8.35;3.70;;;17.30;99.90;;;;;;5045434;28;20037;-59
2022/04/18 11:30:12;;;;;;;8.40;3.67;;;17.10;99.90;;;;;;5045175;28;20029;-58
2022/04/18 11:32:41;;;;;;;7.45;3.58;;;17.10;99.90;;;;;;5037126;28;20037;-59
2022/04/18 11:35:09;;;;;;;7.07;3.33;;;16.80;99.90;;;;;;5035017;28;20022;-59
2022/04/18 11:37:39;;;;;;;9.32;3.50;;;16.90;99.90;;;;;;5035113;28;20049;-58
2022/04/18 11:40:09;;;;;;;10.05;3.70;;;17.00;99.90;;;;;;5035443;28;20615;-59
2022/04/18 11:42:37;;;;;;;9.75;3.80;;;17.20;99.90;;;;;;5031290;28;20399;-59
2022/04/18 11:45:08;;;;;;;8.35;4.00;;;17.20;99.90;;;;;;5035436;28;20188;-59
2022/04/18 11:47:45;;;;;;;7.28;4.05;;;17.30;99.90;;;;;;5035864;28;20037;-59
2022/04/18 11:50:11;;;;;;;7.93;4.30;;;17.00;99.90;;;;;;5033720;28;20029;-59
2022/04/18 11:52:39;;;;;;;7.55;4.25;;;17.20;99.90;;;;;;5033317;28;20083;-59
2022/04/18 11:55:14;;;;;;;10.63;5.00;;;17.40;99.90;;;;;;5034560;28;20498;-58
2022/04/18 11:57:42;;;;;;;9.20;5.13;;;17.40;99.90;;;;;;5032225;28;20487;-59
2022/04/18 12:00:11;;;;;;;7.13;4.72;;;17.60;99.90;;;;;;5033767;28;20041;-59
2022/04/18 12:08:10;;;;;;;10.73;5.95;;;18.10;99.90;;;;;;5034975;28;20064;-59
2022/04/18 12:10:41;;;;;;;10.10;5.30;;;17.50;99.90;;;;;;5034291;28;20041;-60
2022/04/18 12:13:14;;;;;;;8.45;5.20;;;18.00;99.90;;;;;;5034264;28;20493;-60
2022/04/18 12:15:41;;;;;;;10.02;5.43;;;18.10;99.90;;;;;;5031854;28;20453;-59
2022/04/18 12:18:15;;;;;;;9.57;5.95;;;18.30;99.90;;;;;;5033890;28;20092;-59
2022/04/18 12:20:46;;;;;;;9.70;5.57;;;18.40;99.90;;;;;;5034437;28;20032;-59
2022/04/18 12:23:26;;;;;;;9.02;6.32;;;18.70;99.90;;;;;;5032573;28;20033;-59
2022/04/18 12:25:57;;;;;;;8.23;5.57;;;18.40;99.90;;;;;;5033022;28;20044;-59
2022/04/18 12:28:25;;;;;;;11.38;5.63;;;18.90;99.90;;;;;;5032815;28;20033;-59
2022/04/18 12:30:51;;;;;;;14.82;6.88;;;19.10;99.90;;;;;;5032908;28;20021;-59
2022/04/18 12:33:22;;;;;;;13.85;6.43;;;18.50;99.90;;;;;;5031270;28;20038;-59
2022/04/18 12:35:52;;;;;;;11.40;6.95;;;18.90;99.90;;;;;;5036515;28;20129;-59
2022/04/18 12:38:20;;;;;;;9.43;6.80;;;19.20;99.90;;;;;;5034220;28;20498;-59
2022/04/18 12:40:54;;;;;;;11.80;7.35;;;18.90;99.90;;;;;;5033869;28;20025;-59
2022/04/18 12:43:19;;;;;;;;;;;18.90;99.90;;;;;;5034502;28;20413;-59
2022/04/18 12:45:57;;;;;;;11.15;6.93;;;19.00;99.90;;;;;;5031962;28;19909;-59
2022/04/18 12:48:24;;;;;;;11.95;7.43;;;18.80;99.90;;;;;;5030287;28;20071;-60
2022/04/18 12:50:52;;;;;;;11.55;8.20;;;19.10;99.90;;;;;;5035980;28;20025;-60
2022/04/18 12:53:18;;;;;;;12.60;7.82;;;19.60;99.90;;;;;;5033981;28;20089;-59
2022/04/18 12:55:44;;;;;;;12.70;7.55;;;19.60;99.90;;;;;;5033855;28;20454;-59
2022/04/18 12:58:19;;;;;;;14.15;7.82;;;19.60;99.90;;;;;;5034379;28;20054;-60
2022/04/18 13:00:49;;;;;;;10.68;8.35;;;19.70;99.90;;;;;;5031736;28;20490;-60
2022/04/18 13:03:17;;;;;;;10.43;7.05;;;19.70;99.90;;;;;;5031884;28;20030;-59
2022/04/18 13:05:49;;;;;;;8.30;6.32;;;19.50;99.90;;;;;;5034259;28;20505;-59